馬祖北竿航空站 - ATIS

METAR RCMT 200300Z 04017KT CAVOK 27/13 Q1010 NOSIG RMK A2983(X)=

站台狀態:Online
最後更新:2019-09-20 11:00:02